sensor_id;sensor_type;location;lat;lon;timestamp;P1;durP1;ratioP1;P2;durP2;ratioP2
50213;SDS011;36103;54.176;12.070;2024-02-23T00:00:27;3.37;;;1.83;;
50213;SDS011;36103;54.176;12.070;2024-02-23T00:01:28;3.87;;;1.67;;
50213;SDS011;36103;54.176;12.070;2024-02-23T00:02:29;4.13;;;1.90;;
50213;SDS011;36103;54.176;12.070;2024-02-23T00:03:30;3.07;;;1.50;;
50213;SDS011;36103;54.176;12.070;2024-02-23T00:04:31;4.20;;;1.67;;
50213;SDS011;36103;54.176;12.070;2024-02-23T00:05:32;3.87;;;1.77;;
50213;SDS011;36103;54.176;12.070;2024-02-23T00:06:33;2.67;;;1.73;;
50213;SDS011;36103;54.176;12.070;2024-02-23T00:07:34;2.97;;;1.73;;
50213;SDS011;36103;54.176;12.070;2024-02-23T00:08:35;3.50;;;1.60;;
50213;SDS011;36103;54.176;12.070;2024-02-23T00:09:37;2.67;;;1.70;;
50213;SDS011;36103;54.176;12.070;2024-02-23T00:10:38;3.73;;;1.70;;
50213;SDS011;36103;54.176;12.070;2024-02-23T00:11:39;4.30;;;1.77;;
50213;SDS011;36103;54.176;12.070;2024-02-23T00:12:44;2.77;;;1.60;;
50213;SDS011;36103;54.176;12.070;2024-02-23T00:13:44;2.93;;;1.70;;
50213;SDS011;36103;54.176;12.070;2024-02-23T00:14:45;4.23;;;1.80;;
50213;SDS011;36103;54.176;12.070;2024-02-23T00:15:46;2.77;;;1.53;;
50213;SDS011;36103;54.176;12.070;2024-02-23T00:16:47;2.67;;;1.40;;
50213;SDS011;36103;54.176;12.070;2024-02-23T00:17:49;2.40;;;1.63;;
50213;SDS011;36103;54.176;12.070;2024-02-23T00:18:50;5.17;;;1.80;;
50213;SDS011;36103;54.176;12.070;2024-02-23T00:19:50;3.10;;;1.57;;
50213;SDS011;36103;54.176;12.070;2024-02-23T00:20:53;5.17;;;2.10;;
50213;SDS011;36103;54.176;12.070;2024-02-23T00:21:53;3.13;;;1.73;;
50213;SDS011;36103;54.176;12.070;2024-02-23T00:22:54;2.43;;;1.50;;
50213;SDS011;36103;54.176;12.070;2024-02-23T00:23:55;2.53;;;1.60;;
50213;SDS011;36103;54.176;12.070;2024-02-23T00:24:56;3.07;;;1.93;;
50213;SDS011;36103;54.176;12.070;2024-02-23T00:25:57;4.90;;;1.80;;
50213;SDS011;36103;54.176;12.070;2024-02-23T00:26:58;3.40;;;1.53;;
50213;SDS011;36103;54.176;12.070;2024-02-23T00:27:59;2.67;;;1.30;;
50213;SDS011;36103;54.176;12.070;2024-02-23T00:28:59;4.13;;;1.70;;
50213;SDS011;36103;54.176;12.070;2024-02-23T00:30:00;2.97;;;1.43;;
50213;SDS011;36103;54.176;12.070;2024-02-23T00:31:01;2.50;;;1.57;;
50213;SDS011;36103;54.176;12.070;2024-02-23T00:32:02;3.47;;;1.70;;
50213;SDS011;36103;54.176;12.070;2024-02-23T00:33:04;2.60;;;1.80;;
50213;SDS011;36103;54.176;12.070;2024-02-23T00:34:05;2.60;;;1.50;;
50213;SDS011;36103;54.176;12.070;2024-02-23T00:35:10;2.43;;;1.50;;
50213;SDS011;36103;54.176;12.070;2024-02-23T00:36:11;3.80;;;1.53;;
50213;SDS011;36103;54.176;12.070;2024-02-23T00:37:12;4.33;;;1.60;;
50213;SDS011;36103;54.176;12.070;2024-02-23T00:38:13;2.50;;;1.60;;
50213;SDS011;36103;54.176;12.070;2024-02-23T00:39:14;5.07;;;1.67;;
50213;SDS011;36103;54.176;12.070;2024-02-23T00:40:15;2.40;;;1.43;;
50213;SDS011;36103;54.176;12.070;2024-02-23T00:41:16;4.03;;;1.83;;
50213;SDS011;36103;54.176;12.070;2024-02-23T00:42:17;3.70;;;1.83;;
50213;SDS011;36103;54.176;12.070;2024-02-23T00:43:18;2.87;;;1.80;;
50213;SDS011;36103;54.176;12.070;2024-02-23T00:44:20;2.77;;;1.57;;
50213;SDS011;36103;54.176;12.070;2024-02-23T00:45:20;1.97;;;1.27;;
50213;SDS011;36103;54.176;12.070;2024-02-23T00:46:22;2.93;;;1.67;;
50213;SDS011;36103;54.176;12.070;2024-02-23T00:47:22;4.03;;;1.80;;
50213;SDS011;36103;54.176;12.070;2024-02-23T00:48:23;2.67;;;1.53;;
50213;SDS011;36103;54.176;12.070;2024-02-23T00:49:24;2.53;;;1.37;;
50213;SDS011;36103;54.176;12.070;2024-02-23T00:50:25;2.37;;;1.23;;
50213;SDS011;36103;54.176;12.070;2024-02-23T00:51:27;2.37;;;1.27;;
50213;SDS011;36103;54.176;12.070;2024-02-23T00:52:27;3.07;;;1.33;;
50213;SDS011;36103;54.176;12.070;2024-02-23T00:53:28;2.17;;;1.30;;
50213;SDS011;36103;54.176;12.070;2024-02-23T00:54:31;1.97;;;1.40;;
50213;SDS011;36103;54.176;12.070;2024-02-23T00:55:32;2.40;;;1.57;;
50213;SDS011;36103;54.176;12.070;2024-02-23T00:56:33;3.70;;;1.60;;
50213;SDS011;36103;54.176;12.070;2024-02-23T00:57:34;2.00;;;1.30;;
50213;SDS011;36103;54.176;12.070;2024-02-23T00:58:35;2.50;;;1.33;;
50213;SDS011;36103;54.176;12.070;2024-02-23T00:59:36;2.47;;;1.30;;
50213;SDS011;36103;54.176;12.070;2024-02-23T01:00:37;3.70;;;1.37;;
50213;SDS011;36103;54.176;12.070;2024-02-23T01:01:38;3.60;;;1.47;;
50213;SDS011;36103;54.176;12.070;2024-02-23T01:02:39;2.87;;;1.30;;
50213;SDS011;36103;54.176;12.070;2024-02-23T01:03:40;4.60;;;1.50;;
50213;SDS011;36103;54.176;12.070;2024-02-23T01:04:41;3.63;;;1.30;;
50213;SDS011;36103;54.176;12.070;2024-02-23T01:05:42;3.13;;;1.30;;
50213;SDS011;36103;54.176;12.070;2024-02-23T01:06:43;3.77;;;1.17;;
50213;SDS011;36103;54.176;12.070;2024-02-23T01:07:44;5.30;;;1.50;;
50213;SDS011;36103;54.176;12.070;2024-02-23T01:08:45;1.67;;;1.23;;
50213;SDS011;36103;54.176;12.070;2024-02-23T01:09:47;3.23;;;1.37;;
50213;SDS011;36103;54.176;12.070;2024-02-23T01:10:49;1.90;;;1.20;;
50213;SDS011;36103;54.176;12.070;2024-02-23T01:11:49;1.47;;;1.17;;
50213;SDS011;36103;54.176;12.070;2024-02-23T01:12:51;1.30;;;1.10;;
50213;SDS011;36103;54.176;12.070;2024-02-23T01:13:51;2.53;;;1.23;;
50213;SDS011;36103;54.176;12.070;2024-02-23T01:14:53;2.00;;;1.33;;
50213;SDS011;36103;54.176;12.070;2024-02-23T01:15:53;2.37;;;1.20;;
50213;SDS011;36103;54.176;12.070;2024-02-23T01:16:54;2.63;;;1.20;;
50213;SDS011;36103;54.176;12.070;2024-02-23T01:17:55;2.47;;;1.30;;
50213;SDS011;36103;54.176;12.070;2024-02-23T01:18:56;2.60;;;1.27;;
50213;SDS011;36103;54.176;12.070;2024-02-23T01:19:57;2.70;;;1.30;;
50213;SDS011;36103;54.176;12.070;2024-02-23T01:20:58;2.07;;;1.13;;
50213;SDS011;36103;54.176;12.070;2024-02-23T01:21:59;2.90;;;1.30;;
50213;SDS011;36103;54.176;12.070;2024-02-23T01:23:00;5.03;;;1.77;;
50213;SDS011;36103;54.176;12.070;2024-02-23T01:24:00;6.57;;;1.50;;
50213;SDS011;36103;54.176;12.070;2024-02-23T01:25:01;2.47;;;1.27;;
50213;SDS011;36103;54.176;12.070;2024-02-23T01:26:03;1.40;;;1.20;;
50213;SDS011;36103;54.176;12.070;2024-02-23T01:27:04;2.00;;;1.20;;
50213;SDS011;36103;54.176;12.070;2024-02-23T01:28:05;3.73;;;1.33;;
50213;SDS011;36103;54.176;12.070;2024-02-23T01:29:06;2.43;;;1.13;;
50213;SDS011;36103;54.176;12.070;2024-02-23T01:30:07;1.97;;;1.17;;
50213;SDS011;36103;54.176;12.070;2024-02-23T01:31:08;1.63;;;1.27;;
50213;SDS011;36103;54.176;12.070;2024-02-23T01:32:10;1.87;;;1.10;;
50213;SDS011;36103;54.176;12.070;2024-02-23T01:33:11;2.17;;;1.40;;
50213;SDS011;36103;54.176;12.070;2024-02-23T01:34:12;2.53;;;1.30;;
50213;SDS011;36103;54.176;12.070;2024-02-23T01:35:13;1.80;;;1.10;;
50213;SDS011;36103;54.176;12.070;2024-02-23T01:36:13;1.43;;;1.07;;
50213;SDS011;36103;54.176;12.070;2024-02-23T01:37:14;1.50;;;1.00;;
50213;SDS011;36103;54.176;12.070;2024-02-23T01:38:15;1.40;;;1.10;;
50213;SDS011;36103;54.176;12.070;2024-02-23T01:39:20;1.10;;;1.00;;
50213;SDS011;36103;54.176;12.070;2024-02-23T01:40:21;2.20;;;1.30;;
50213;SDS011;36103;54.176;12.070;2024-02-23T01:41:22;2.33;;;1.20;;
50213;SDS011;36103;54.176;12.070;2024-02-23T01:42:23;1.80;;;1.20;;
50213;SDS011;36103;54.176;12.070;2024-02-23T01:43:25;1.73;;;1.00;;
50213;SDS011;36103;54.176;12.070;2024-02-23T01:44:27;2.10;;;1.10;;
50213;SDS011;36103;54.176;12.070;2024-02-23T01:45:27;2.00;;;1.13;;
50213;SDS011;36103;54.176;12.070;2024-02-23T01:46:29;2.20;;;0.97;;
50213;SDS011;36103;54.176;12.070;2024-02-23T01:47:30;1.10;;;1.00;;
50213;SDS011;36103;54.176;12.070;2024-02-23T01:48:31;2.20;;;1.10;;
50213;SDS011;36103;54.176;12.070;2024-02-23T01:49:32;4.23;;;1.07;;
50213;SDS011;36103;54.176;12.070;2024-02-23T01:50:33;1.30;;;0.97;;
50213;SDS011;36103;54.176;12.070;2024-02-23T01:51:34;1.10;;;0.93;;
50213;SDS011;36103;54.176;12.070;2024-02-23T01:52:35;1.30;;;0.90;;
50213;SDS011;36103;54.176;12.070;2024-02-23T01:53:37;1.70;;;1.10;;
50213;SDS011;36103;54.176;12.070;2024-02-23T01:54:38;5.30;;;1.10;;
50213;SDS011;36103;54.176;12.070;2024-02-23T01:55:39;1.17;;;1.07;;
50213;SDS011;36103;54.176;12.070;2024-02-23T01:56:42;2.57;;;1.23;;
50213;SDS011;36103;54.176;12.070;2024-02-23T01:57:43;2.73;;;1.20;;
50213;SDS011;36103;54.176;12.070;2024-02-23T01:58:45;2.27;;;1.10;;
50213;SDS011;36103;54.176;12.070;2024-02-23T01:59:47;1.40;;;1.03;;
50213;SDS011;36103;54.176;12.070;2024-02-23T02:00:48;1.87;;;1.27;;
50213;SDS011;36103;54.176;12.070;2024-02-23T02:01:49;1.30;;;0.97;;
50213;SDS011;36103;54.176;12.070;2024-02-23T02:02:50;2.30;;;1.10;;
50213;SDS011;36103;54.176;12.070;2024-02-23T02:03:52;1.40;;;1.00;;
50213;SDS011;36103;54.176;12.070;2024-02-23T02:04:53;2.07;;;1.00;;
50213;SDS011;36103;54.176;12.070;2024-02-23T02:05:53;2.83;;;1.10;;
50213;SDS011;36103;54.176;12.070;2024-02-23T02:06:58;1.40;;;1.10;;
50213;SDS011;36103;54.176;12.070;2024-02-23T02:07:59;2.27;;;1.20;;
50213;SDS011;36103;54.176;12.070;2024-02-23T02:09:00;1.20;;;1.00;;
50213;SDS011;36103;54.176;12.070;2024-02-23T02:10:02;1.37;;;0.90;;
50213;SDS011;36103;54.176;12.070;2024-02-23T02:11:04;3.77;;;1.20;;
50213;SDS011;36103;54.176;12.070;2024-02-23T02:12:05;1.93;;;1.03;;
50213;SDS011;36103;54.176;12.070;2024-02-23T02:13:07;1.10;;;1.00;;
50213;SDS011;36103;54.176;12.070;2024-02-23T02:14:07;2.17;;;1.20;;
50213;SDS011;36103;54.176;12.070;2024-02-23T02:15:10;1.40;;;0.90;;
50213;SDS011;36103;54.176;12.070;2024-02-23T02:16:11;1.97;;;1.13;;
50213;SDS011;36103;54.176;12.070;2024-02-23T02:17:12;2.33;;;1.30;;
50213;SDS011;36103;54.176;12.070;2024-02-23T02:18:13;1.90;;;1.00;;
50213;SDS011;36103;54.176;12.070;2024-02-23T02:19:14;1.50;;;1.00;;
50213;SDS011;36103;54.176;12.070;2024-02-23T02:20:15;1.20;;;1.10;;
50213;SDS011;36103;54.176;12.070;2024-02-23T02:21:18;1.40;;;1.00;;
50213;SDS011;36103;54.176;12.070;2024-02-23T02:22:23;2.03;;;1.17;;
50213;SDS011;36103;54.176;12.070;2024-02-23T02:23:24;2.20;;;1.20;;
50213;SDS011;36103;54.176;12.070;2024-02-23T02:24:26;1.33;;;1.07;;
50213;SDS011;36103;54.176;12.070;2024-02-23T02:25:27;1.13;;;0.93;;
50213;SDS011;36103;54.176;12.070;2024-02-23T02:26:28;0.83;;;0.83;;
50213;SDS011;36103;54.176;12.070;2024-02-23T02:27:29;2.50;;;0.80;;
50213;SDS011;36103;54.176;12.070;2024-02-23T02:28:30;1.97;;;1.20;;
50213;SDS011;36103;54.176;12.070;2024-02-23T02:29:31;2.40;;;0.90;;
50213;SDS011;36103;54.176;12.070;2024-02-23T02:30:32;2.50;;;0.90;;
50213;SDS011;36103;54.176;12.070;2024-02-23T02:31:33;1.20;;;1.10;;
50213;SDS011;36103;54.176;12.070;2024-02-23T02:32:37;3.73;;;1.23;;
50213;SDS011;36103;54.176;12.070;2024-02-23T02:33:37;1.10;;;0.90;;
50213;SDS011;36103;54.176;12.070;2024-02-23T02:34:40;1.07;;;0.90;;
50213;SDS011;36103;54.176;12.070;2024-02-23T02:35:41;1.77;;;1.10;;
50213;SDS011;36103;54.176;12.070;2024-02-23T02:36:42;1.00;;;0.93;;
50213;SDS011;36103;54.176;12.070;2024-02-23T02:37:42;1.87;;;1.07;;
50213;SDS011;36103;54.176;12.070;2024-02-23T02:38:43;1.00;;;0.83;;
50213;SDS011;36103;54.176;12.070;2024-02-23T02:39:44;1.13;;;0.97;;
50213;SDS011;36103;54.176;12.070;2024-02-23T02:40:44;1.17;;;0.93;;
50213;SDS011;36103;54.176;12.070;2024-02-23T02:41:47;1.30;;;0.83;;
50213;SDS011;36103;54.176;12.070;2024-02-23T02:42:48;1.60;;;0.90;;
50213;SDS011;36103;54.176;12.070;2024-02-23T02:43:49;2.87;;;1.10;;
50213;SDS011;36103;54.176;12.070;2024-02-23T02:44:50;1.17;;;0.87;;
50213;SDS011;36103;54.176;12.070;2024-02-23T02:45:51;2.40;;;1.10;;
50213;SDS011;36103;54.176;12.070;2024-02-23T02:46:51;2.00;;;1.07;;
50213;SDS011;36103;54.176;12.070;2024-02-23T02:47:52;1.17;;;0.80;;
50213;SDS011;36103;54.176;12.070;2024-02-23T02:48:53;2.70;;;1.10;;
50213;SDS011;36103;54.176;12.070;2024-02-23T02:49:54;1.40;;;0.90;;
50213;SDS011;36103;54.176;12.070;2024-02-23T02:50:54;0.93;;;0.80;;
50213;SDS011;36103;54.176;12.070;2024-02-23T02:51:55;2.37;;;0.93;;
50213;SDS011;36103;54.176;12.070;2024-02-23T02:52:56;2.30;;;1.00;;
50213;SDS011;36103;54.176;12.070;2024-02-23T02:53:57;1.00;;;0.90;;
50213;SDS011;36103;54.176;12.070;2024-02-23T02:54:58;1.53;;;1.00;;
50213;SDS011;36103;54.176;12.070;2024-02-23T02:55:59;1.00;;;0.90;;
50213;SDS011;36103;54.176;12.070;2024-02-23T02:56:59;1.03;;;0.70;;
50213;SDS011;36103;54.176;12.070;2024-02-23T02:58:01;1.30;;;0.80;;
50213;SDS011;36103;54.176;12.070;2024-02-23T02:59:02;1.07;;;0.80;;
50213;SDS011;36103;54.176;12.070;2024-02-23T03:00:03;2.13;;;1.00;;
50213;SDS011;36103;54.176;12.070;2024-02-23T03:01:05;1.70;;;0.87;;
50213;SDS011;36103;54.176;12.070;2024-02-23T03:02:06;1.23;;;1.03;;
50213;SDS011;36103;54.176;12.070;2024-02-23T03:03:07;1.47;;;0.83;;
50213;SDS011;36103;54.176;12.070;2024-02-23T03:04:08;1.37;;;0.70;;
50213;SDS011;36103;54.176;12.070;2024-02-23T03:05:08;1.20;;;1.00;;
50213;SDS011;36103;54.176;12.070;2024-02-23T03:06:09;1.93;;;0.93;;
50213;SDS011;36103;54.176;12.070;2024-02-23T03:07:10;1.00;;;0.90;;
50213;SDS011;36103;54.176;12.070;2024-02-23T03:08:11;1.13;;;0.80;;
50213;SDS011;36103;54.176;12.070;2024-02-23T03:09:11;1.37;;;0.93;;
50213;SDS011;36103;54.176;12.070;2024-02-23T03:10:12;0.70;;;0.70;;
50213;SDS011;36103;54.176;12.070;2024-02-23T03:11:13;0.80;;;0.80;;
50213;SDS011;36103;54.176;12.070;2024-02-23T03:12:14;0.97;;;0.90;;
50213;SDS011;36103;54.176;12.070;2024-02-23T03:13:15;1.30;;;0.90;;
50213;SDS011;36103;54.176;12.070;2024-02-23T03:14:16;1.90;;;0.90;;
50213;SDS011;36103;54.176;12.070;2024-02-23T03:15:18;1.27;;;0.70;;
50213;SDS011;36103;54.176;12.070;2024-02-23T03:16:20;0.70;;;0.70;;
50213;SDS011;36103;54.176;12.070;2024-02-23T03:17:23;2.60;;;1.03;;
50213;SDS011;36103;54.176;12.070;2024-02-23T03:18:24;2.30;;;0.87;;
50213;SDS011;36103;54.176;12.070;2024-02-23T03:19:27;1.20;;;1.03;;
50213;SDS011;36103;54.176;12.070;2024-02-23T03:20:28;1.50;;;0.80;;
50213;SDS011;36103;54.176;12.070;2024-02-23T03:21:29;4.07;;;1.00;;
50213;SDS011;36103;54.176;12.070;2024-02-23T03:22:31;1.47;;;0.90;;
50213;SDS011;36103;54.176;12.070;2024-02-23T03:23:32;1.00;;;0.90;;
50213;SDS011;36103;54.176;12.070;2024-02-23T03:24:33;2.10;;;1.00;;
50213;SDS011;36103;54.176;12.070;2024-02-23T03:25:33;1.10;;;0.80;;
50213;SDS011;36103;54.176;12.070;2024-02-23T03:26:35;1.00;;;0.73;;
50213;SDS011;36103;54.176;12.070;2024-02-23T03:27:36;0.70;;;0.70;;
50213;SDS011;36103;54.176;12.070;2024-02-23T03:28:38;1.00;;;0.90;;
50213;SDS011;36103;54.176;12.070;2024-02-23T03:29:39;1.27;;;0.90;;
50213;SDS011;36103;54.176;12.070;2024-02-23T03:30:39;0.63;;;0.63;;
50213;SDS011;36103;54.176;12.070;2024-02-23T03:31:40;1.40;;;0.80;;
50213;SDS011;36103;54.176;12.070;2024-02-23T03:32:41;1.87;;;0.90;;
50213;SDS011;36103;54.176;12.070;2024-02-23T03:33:42;0.80;;;0.77;;
50213;SDS011;36103;54.176;12.070;2024-02-23T03:34:43;0.87;;;0.80;;
50213;SDS011;36103;54.176;12.070;2024-02-23T03:35:44;1.30;;;0.70;;
50213;SDS011;36103;54.176;12.070;2024-02-23T03:36:45;0.97;;;0.70;;
50213;SDS011;36103;54.176;12.070;2024-02-23T03:37:46;0.90;;;0.80;;
50213;SDS011;36103;54.176;12.070;2024-02-23T03:38:47;1.10;;;0.80;;
50213;SDS011;36103;54.176;12.070;2024-02-23T03:39:48;0.70;;;0.70;;
50213;SDS011;36103;54.176;12.070;2024-02-23T03:40:49;1.20;;;0.70;;
50213;SDS011;36103;54.176;12.070;2024-02-23T03:41:50;0.87;;;0.70;;
50213;SDS011;36103;54.176;12.070;2024-02-23T03:42:51;1.80;;;0.90;;
50213;SDS011;36103;54.176;12.070;2024-02-23T03:43:55;1.57;;;0.87;;
50213;SDS011;36103;54.176;12.070;2024-02-23T03:44:56;1.00;;;0.77;;
50213;SDS011;36103;54.176;12.070;2024-02-23T03:45:57;0.50;;;0.50;;
50213;SDS011;36103;54.176;12.070;2024-02-23T03:46:58;1.37;;;0.70;;
50213;SDS011;36103;54.176;12.070;2024-02-23T03:47:59;1.20;;;0.70;;
50213;SDS011;36103;54.176;12.070;2024-02-23T03:49:00;1.17;;;0.80;;
50213;SDS011;36103;54.176;12.070;2024-02-23T03:50:01;0.67;;;0.63;;
50213;SDS011;36103;54.176;12.070;2024-02-23T03:51:03;0.70;;;0.70;;
50213;SDS011;36103;54.176;12.070;2024-02-23T03:52:04;1.33;;;0.70;;
50213;SDS011;36103;54.176;12.070;2024-02-23T03:53:05;1.10;;;0.80;;
50213;SDS011;36103;54.176;12.070;2024-02-23T03:54:06;0.87;;;0.77;;
50213;SDS011;36103;54.176;12.070;2024-02-23T03:55:07;0.70;;;0.60;;
50213;SDS011;36103;54.176;12.070;2024-02-23T03:56:08;0.80;;;0.70;;
50213;SDS011;36103;54.176;12.070;2024-02-23T03:57:09;1.57;;;0.93;;
50213;SDS011;36103;54.176;12.070;2024-02-23T03:58:10;2.00;;;0.90;;
50213;SDS011;36103;54.176;12.070;2024-02-23T03:59:12;1.03;;;0.70;;
50213;SDS011;36103;54.176;12.070;2024-02-23T04:00:13;1.30;;;0.80;;
50213;SDS011;36103;54.176;12.070;2024-02-23T04:01:15;0.90;;;0.90;;
50213;SDS011;36103;54.176;12.070;2024-02-23T04:02:16;1.30;;;0.80;;
50213;SDS011;36103;54.176;12.070;2024-02-23T04:03:17;0.80;;;0.70;;
50213;SDS011;36103;54.176;12.070;2024-02-23T04:04:19;1.03;;;0.57;;
50213;SDS011;36103;54.176;12.070;2024-02-23T04:05:19;0.97;;;0.70;;
50213;SDS011;36103;54.176;12.070;2024-02-23T04:06:20;0.70;;;0.70;;
50213;SDS011;36103;54.176;12.070;2024-02-23T04:07:21;1.00;;;0.80;;
50213;SDS011;36103;54.176;12.070;2024-02-23T04:08:22;0.80;;;0.70;;
50213;SDS011;36103;54.176;12.070;2024-02-23T04:09:23;0.87;;;0.70;;
50213;SDS011;36103;54.176;12.070;2024-02-23T04:10:24;0.90;;;0.70;;
50213;SDS011;36103;54.176;12.070;2024-02-23T04:11:25;0.60;;;0.60;;
50213;SDS011;36103;54.176;12.070;2024-02-23T04:12:26;0.70;;;0.60;;
50213;SDS011;36103;54.176;12.070;2024-02-23T04:13:27;1.77;;;0.80;;
50213;SDS011;36103;54.176;12.070;2024-02-23T04:14:28;0.67;;;0.67;;
50213;SDS011;36103;54.176;12.070;2024-02-23T04:15:29;1.10;;;0.70;;
50213;SDS011;36103;54.176;12.070;2024-02-23T04:16:30;1.30;;;0.93;;
50213;SDS011;36103;54.176;12.070;2024-02-23T04:17:31;2.60;;;0.80;;
50213;SDS011;36103;54.176;12.070;2024-02-23T04:18:32;1.47;;;1.00;;
50213;SDS011;36103;54.176;12.070;2024-02-23T04:19:33;0.80;;;0.70;;
50213;SDS011;36103;54.176;12.070;2024-02-23T04:20:34;0.80;;;0.70;;
50213;SDS011;36103;54.176;12.070;2024-02-23T04:21:35;1.37;;;0.80;;
50213;SDS011;36103;54.176;12.070;2024-02-23T04:22:36;0.70;;;0.70;;
50213;SDS011;36103;54.176;12.070;2024-02-23T04:23:37;1.00;;;0.90;;
50213;SDS011;36103;54.176;12.070;2024-02-23T04:24:38;0.70;;;0.60;;
50213;SDS011;36103;54.176;12.070;2024-02-23T04:25:39;0.97;;;0.80;;
50213;SDS011;36103;54.176;12.070;2024-02-23T04:26:40;1.87;;;0.90;;
50213;SDS011;36103;54.176;12.070;2024-02-23T04:27:41;1.03;;;0.60;;
50213;SDS011;36103;54.176;12.070;2024-02-23T04:28:43;1.17;;;0.80;;
50213;SDS011;36103;54.176;12.070;2024-02-23T04:29:44;0.70;;;0.60;;
50213;SDS011;36103;54.176;12.070;2024-02-23T04:30:45;1.50;;;0.63;;
50213;SDS011;36103;54.176;12.070;2024-02-23T04:31:46;1.00;;;0.70;;
50213;SDS011;36103;54.176;12.070;2024-02-23T04:32:47;0.67;;;0.67;;
50213;SDS011;36103;54.176;12.070;2024-02-23T04:33:48;0.60;;;0.50;;
50213;SDS011;36103;54.176;12.070;2024-02-23T04:34:49;0.80;;;0.80;;
50213;SDS011;36103;54.176;12.070;2024-02-23T04:35:50;0.50;;;0.50;;
50213;SDS011;36103;54.176;12.070;2024-02-23T04:36:51;0.93;;;0.67;;
50213;SDS011;36103;54.176;12.070;2024-02-23T04:37:52;0.90;;;0.70;;
50213;SDS011;36103;54.176;12.070;2024-02-23T04:38:52;0.90;;;0.80;;
50213;SDS011;36103;54.176;12.070;2024-02-23T04:39:53;0.60;;;0.60;;
50213;SDS011;36103;54.176;12.070;2024-02-23T04:40:54;1.43;;;0.80;;
50213;SDS011;36103;54.176;12.070;2024-02-23T04:41:55;2.00;;;0.70;;
50213;SDS011;36103;54.176;12.070;2024-02-23T04:42:56;1.23;;;0.70;;
50213;SDS011;36103;54.176;12.070;2024-02-23T04:43:56;0.67;;;0.67;;
50213;SDS011;36103;54.176;12.070;2024-02-23T04:45:00;0.73;;;0.60;;
50213;SDS011;36103;54.176;12.070;2024-02-23T04:46:03;0.77;;;0.77;;
50213;SDS011;36103;54.176;12.070;2024-02-23T04:47:03;0.80;;;0.70;;
50213;SDS011;36103;54.176;12.070;2024-02-23T04:48:05;1.83;;;0.80;;
50213;SDS011;36103;54.176;12.070;2024-02-23T04:49:06;0.70;;;0.70;;
50213;SDS011;36103;54.176;12.070;2024-02-23T04:50:07;0.97;;;0.70;;
50213;SDS011;36103;54.176;12.070;2024-02-23T04:51:09;0.63;;;0.60;;
50213;SDS011;36103;54.176;12.070;2024-02-23T04:52:10;1.13;;;0.77;;
50213;SDS011;36103;54.176;12.070;2024-02-23T04:53:11;0.97;;;0.77;;
50213;SDS011;36103;54.176;12.070;2024-02-23T04:54:12;0.77;;;0.63;;
50213;SDS011;36103;54.176;12.070;2024-02-23T04:55:13;1.00;;;0.50;;
50213;SDS011;36103;54.176;12.070;2024-02-23T04:56:14;0.70;;;0.70;;
50213;SDS011;36103;54.176;12.070;2024-02-23T04:57:14;1.10;;;0.60;;
50213;SDS011;36103;54.176;12.070;2024-02-23T04:58:15;0.67;;;0.67;;
50213;SDS011;36103;54.176;12.070;2024-02-23T04:59:16;0.60;;;0.50;;
50213;SDS011;36103;54.176;12.070;2024-02-23T05:00:18;0.60;;;0.53;;
50213;SDS011;36103;54.176;12.070;2024-02-23T05:01:19;1.70;;;0.60;;
50213;SDS011;36103;54.176;12.070;2024-02-23T05:02:19;1.53;;;0.60;;
50213;SDS011;36103;54.176;12.070;2024-02-23T05:03:20;1.00;;;0.80;;
50213;SDS011;36103;54.176;12.070;2024-02-23T05:04:21;1.00;;;0.60;;
50213;SDS011;36103;54.176;12.070;2024-02-23T05:05:22;0.57;;;0.57;;
50213;SDS011;36103;54.176;12.070;2024-02-23T05:06:22;0.70;;;0.70;;
50213;SDS011;36103;54.176;12.070;2024-02-23T05:07:23;1.20;;;0.83;;
50213;SDS011;36103;54.176;12.070;2024-02-23T05:08:24;1.07;;;0.67;;
50213;SDS011;36103;54.176;12.070;2024-02-23T05:09:25;0.77;;;0.63;;
50213;SDS011;36103;54.176;12.070;2024-02-23T05:10:26;0.63;;;0.63;;
50213;SDS011;36103;54.176;12.070;2024-02-23T05:11:28;0.83;;;0.70;;
50213;SDS011;36103;54.176;12.070;2024-02-23T05:12:29;0.60;;;0.60;;
50213;SDS011;36103;54.176;12.070;2024-02-23T05:13:30;0.73;;;0.70;;
50213;SDS011;36103;54.176;12.070;2024-02-23T05:14:31;0.77;;;0.70;;
50213;SDS011;36103;54.176;12.070;2024-02-23T05:15:32;0.73;;;0.73;;
50213;SDS011;36103;54.176;12.070;2024-02-23T05:16:33;0.70;;;0.70;;
50213;SDS011;36103;54.176;12.070;2024-02-23T05:17:34;0.57;;;0.57;;
50213;SDS011;36103;54.176;12.070;2024-02-23T05:18:35;0.60;;;0.60;;
50213;SDS011;36103;54.176;12.070;2024-02-23T05:19:35;0.70;;;0.70;;
50213;SDS011;36103;54.176;12.070;2024-02-23T05:20:36;0.80;;;0.70;;
50213;SDS011;36103;54.176;12.070;2024-02-23T05:21:37;0.77;;;0.70;;
50213;SDS011;36103;54.176;12.070;2024-02-23T05:22:38;0.90;;;0.80;;
50213;SDS011;36103;54.176;12.070;2024-02-23T05:23:39;0.60;;;0.60;;
50213;SDS011;36103;54.176;12.070;2024-02-23T05:24:40;0.60;;;0.60;;
50213;SDS011;36103;54.176;12.070;2024-02-23T05:25:41;0.80;;;0.60;;
50213;SDS011;36103;54.176;12.070;2024-02-23T05:26:42;0.50;;;0.50;;
50213;SDS011;36103;54.176;12.070;2024-02-23T05:27:44;0.60;;;0.60;;
50213;SDS011;36103;54.176;12.070;2024-02-23T05:28:45;0.60;;;0.60;;
50213;SDS011;36103;54.176;12.070;2024-02-23T05:29:46;0.57;;;0.57;;
50213;SDS011;36103;54.176;12.070;2024-02-23T05:30:47;0.60;;;0.60;;
50213;SDS011;36103;54.176;12.070;2024-02-23T05:31:48;0.70;;;0.70;;
50213;SDS011;36103;54.176;12.070;2024-02-23T05:32:50;0.93;;;0.70;;
50213;SDS011;36103;54.176;12.070;2024-02-23T05:33:51;0.60;;;0.60;;
50213;SDS011;36103;54.176;12.070;2024-02-23T05:34:52;0.70;;;0.70;;
50213;SDS011;36103;54.176;12.070;2024-02-23T05:35:54;0.50;;;0.50;;
50213;SDS011;36103;54.176;12.070;2024-02-23T05:36:55;0.50;;;0.50;;
50213;SDS011;36103;54.176;12.070;2024-02-23T05:37:56;0.60;;;0.57;;
50213;SDS011;36103;54.176;12.070;2024-02-23T05:38:57;0.50;;;0.50;;
50213;SDS011;36103;54.176;12.070;2024-02-23T05:39:57;0.50;;;0.50;;
50213;SDS011;36103;54.176;12.070;2024-02-23T05:41:00;0.50;;;0.50;;
50213;SDS011;36103;54.176;12.070;2024-02-23T05:42:01;0.57;;;0.50;;
50213;SDS011;36103;54.176;12.070;2024-02-23T05:43:02;0.70;;;0.60;;
50213;SDS011;36103;54.176;12.070;2024-02-23T05:44:03;0.50;;;0.50;;
50213;SDS011;36103;54.176;12.070;2024-02-23T05:45:06;0.93;;;0.60;;
50213;SDS011;36103;54.176;12.070;2024-02-23T05:46:09;0.60;;;0.60;;
50213;SDS011;36103;54.176;12.070;2024-02-23T05:47:10;0.80;;;0.80;;
50213;SDS011;36103;54.176;12.070;2024-02-23T05:48:11;0.40;;;0.40;;
50213;SDS011;36103;54.176;12.070;2024-02-23T05:49:12;0.60;;;0.60;;
50213;SDS011;36103;54.176;12.070;2024-02-23T05:50:12;0.60;;;0.60;;
50213;SDS011;36103;54.176;12.070;2024-02-23T05:51:13;0.60;;;0.60;;
50213;SDS011;36103;54.176;12.070;2024-02-23T05:52:14;0.70;;;0.60;;
50213;SDS011;36103;54.176;12.070;2024-02-23T05:53:15;0.60;;;0.60;;
50213;SDS011;36103;54.176;12.070;2024-02-23T05:54:16;0.53;;;0.53;;
50213;SDS011;36103;54.176;12.070;2024-02-23T05:55:17;0.90;;;0.67;;
50213;SDS011;36103;54.176;12.070;2024-02-23T05:56:18;0.50;;;0.40;;
50213;SDS011;36103;54.176;12.070;2024-02-23T05:57:18;0.40;;;0.40;;
50213;SDS011;36103;54.176;12.070;2024-02-23T05:58:19;0.47;;;0.47;;
50213;SDS011;36103;54.176;12.070;2024-02-23T05:59:21;1.03;;;0.70;;
50213;SDS011;36103;54.176;12.070;2024-02-23T06:00:22;0.50;;;0.50;;
50213;SDS011;36103;54.176;12.070;2024-02-23T06:01:23;0.87;;;0.60;;
50213;SDS011;36103;54.176;12.070;2024-02-23T06:02:24;0.83;;;0.50;;